createdAt,value
2023-02-23T00:00:25.919Z,271.64
2023-02-23T00:05:25.850Z,271.19
2023-02-23T00:10:25.776Z,273.20
2023-02-23T00:15:25.735Z,272.75
2023-02-23T00:20:25.621Z,272.75
2023-02-23T00:25:25.616Z,270.75
2023-02-23T00:30:25.522Z,271.19
2023-02-23T00:35:25.457Z,270.53
2023-02-23T00:40:25.390Z,270.53
2023-02-23T00:45:25.444Z,270.75
2023-02-23T00:50:25.270Z,271.86
2023-02-23T00:55:25.212Z,270.53
2023-02-23T01:00:25.142Z,270.53
2023-02-23T01:05:44.137Z,270.31
2023-02-23T01:10:36.528Z,269.21
2023-02-23T01:15:36.470Z,269.43
2023-02-23T01:20:36.400Z,269.43
2023-02-23T01:25:36.306Z,269.43
2023-02-23T01:30:36.307Z,269.43
2023-02-23T01:35:36.186Z,269.21
2023-02-23T01:40:36.134Z,268.99
2023-02-23T01:45:36.065Z,268.12
2023-02-23T01:50:36.018Z,267.91
2023-02-23T01:55:35.914Z,267.47
2023-02-23T02:00:35.878Z,267.69
2023-02-23T02:05:35.795Z,266.40
2023-02-23T02:10:35.734Z,267.04
2023-02-23T02:15:35.657Z,266.83
2023-02-23T02:20:35.603Z,268.12
2023-02-23T02:25:35.519Z,267.47
2023-02-23T02:30:35.492Z,266.40
2023-02-23T02:35:35.370Z,267.47
2023-02-23T02:40:35.360Z,267.69
2023-02-23T02:45:35.281Z,265.97
2023-02-23T02:50:35.227Z,265.76
2023-02-23T02:55:35.136Z,267.47
2023-02-23T03:00:35.075Z,268.77
2023-02-23T03:05:35.015Z,267.04
2023-02-23T03:10:34.961Z,268.12
2023-02-23T03:15:34.903Z,267.91
2023-02-23T03:20:34.829Z,266.40
2023-02-23T03:25:34.757Z,267.47
2023-02-23T03:30:34.684Z,269.87
2023-02-23T03:35:34.625Z,270.09
2023-02-23T03:40:34.565Z,267.91
2023-02-23T03:45:34.476Z,268.12
2023-02-23T03:50:34.424Z,270.09
2023-02-23T03:55:34.435Z,267.26
2023-02-23T04:00:34.296Z,267.69
2023-02-23T04:05:34.225Z,266.40
2023-02-23T04:10:34.156Z,267.04
2023-02-23T04:15:34.077Z,267.47
2023-02-23T04:20:34.120Z,266.83
2023-02-23T04:25:33.949Z,267.04
2023-02-23T04:30:33.923Z,268.56
2023-02-23T04:35:33.873Z,268.99
2023-02-23T04:40:33.781Z,268.12
2023-02-23T04:45:33.695Z,268.56
2023-02-23T04:50:33.646Z,268.12
2023-02-23T04:55:33.552Z,267.91
2023-02-23T05:00:33.505Z,267.04
2023-02-23T05:05:33.430Z,265.12
2023-02-23T05:10:33.483Z,266.19
2023-02-23T05:15:47.824Z,264.49
2023-02-23T05:20:40.180Z,266.40
2023-02-23T05:25:40.151Z,266.40
2023-02-23T05:30:40.076Z,267.04
2023-02-23T05:35:40.000Z,265.33
2023-02-23T05:40:39.917Z,264.91
2023-02-23T05:45:39.844Z,264.49
2023-02-23T05:50:40.097Z,264.07
2023-02-23T05:55:39.743Z,264.28
2023-02-23T06:00:39.630Z,263.86
2023-02-23T06:05:39.784Z,263.86
2023-02-23T06:10:39.512Z,262.61
2023-02-23T06:15:39.830Z,263.86
2023-02-23T06:20:40.392Z,263.44
2023-02-23T06:25:39.339Z,261.98
2023-02-23T06:30:39.324Z,263.02
2023-02-23T06:35:39.221Z,263.44
2023-02-23T06:40:39.118Z,263.02
2023-02-23T06:45:39.079Z,261.78
2023-02-23T06:50:38.999Z,262.61
2023-02-23T06:55:38.964Z,261.98
2023-02-23T07:00:38.875Z,261.36
2023-02-23T07:05:38.813Z,260.14
2023-02-23T07:10:38.726Z,260.95
2023-02-23T07:15:38.671Z,261.36
2023-02-23T07:20:38.589Z,261.57
2023-02-23T07:25:38.567Z,259.73
2023-02-23T07:30:38.494Z,260.54
2023-02-23T07:35:38.426Z,260.14
2023-02-23T07:40:38.331Z,259.93
2023-02-23T07:45:38.321Z,258.71
2023-02-23T07:50:38.206Z,258.31
2023-02-23T07:55:38.148Z,258.51
2023-02-23T08:00:38.082Z,259.32
2023-02-23T08:05:38.013Z,258.51
2023-02-23T08:10:37.941Z,259.12
2023-02-23T08:15:37.903Z,259.32
2023-02-23T08:20:37.805Z,257.71
2023-02-23T08:25:37.739Z,257.51
2023-02-23T08:30:37.849Z,256.71
2023-02-23T08:35:37.629Z,255.13
2023-02-23T08:40:37.544Z,255.72
2023-02-23T08:45:37.489Z,255.13
2023-02-23T08:50:37.422Z,254.94
2023-02-23T08:55:37.355Z,253.38
2023-02-23T09:00:37.268Z,253.77
2023-02-23T09:05:37.269Z,251.65
2023-02-23T09:10:37.144Z,250.89
2023-02-23T09:15:37.180Z,250.32
2023-02-23T09:20:37.018Z,249.01
2023-02-23T09:25:36.944Z,248.08
2023-02-23T09:30:36.912Z,246.97
2023-02-23T09:35:36.834Z,247.52
2023-02-23T09:40:36.781Z,246.97
2023-02-23T09:45:36.647Z,245.87
2023-02-23T09:50:36.640Z,245.51
2023-02-23T09:55:36.525Z,247.71
2023-02-23T10:00:36.538Z,245.14
2023-02-23T10:05:36.437Z,245.32
2023-02-23T10:10:36.437Z,247.15
2023-02-23T10:15:36.303Z,244.42
2023-02-23T10:20:36.247Z,244.96
2023-02-23T10:25:36.163Z,244.42
2023-02-23T10:30:36.170Z,244.06
2023-02-23T10:35:36.005Z,244.78
2023-02-23T10:40:36.039Z,245.14
2023-02-23T10:45:35.884Z,245.69
2023-02-23T10:50:35.867Z,245.32
2023-02-23T10:55:35.754Z,243.88
2023-02-23T11:00:35.718Z,244.78
2023-02-23T11:05:35.642Z,243.70
2023-02-23T11:10:35.568Z,241.93
2023-02-23T11:15:49.768Z,242.99
2023-02-23T11:20:36.430Z,241.40
2023-02-23T11:25:36.180Z,239.48
2023-02-23T11:30:35.337Z,240.00
2023-02-23T11:35:36.244Z,239.83
2023-02-23T11:40:35.198Z,238.79
2023-02-23T11:45:35.145Z,239.48
2023-02-23T11:50:35.033Z,238.79
2023-02-23T11:55:34.984Z,240.00
2023-02-23T12:00:34.905Z,239.65
2023-02-23T12:05:34.850Z,240.00
2023-02-23T12:10:34.837Z,238.45
2023-02-23T12:15:34.712Z,238.45
2023-02-23T12:20:34.656Z,236.75
2023-02-23T12:25:34.612Z,238.11
2023-02-23T12:30:34.513Z,236.92
2023-02-23T12:35:34.450Z,238.62
2023-02-23T12:40:34.363Z,238.11
2023-02-23T12:45:34.412Z,235.74
2023-02-23T12:50:34.228Z,234.74
2023-02-23T12:55:34.189Z,233.91
2023-02-23T13:00:34.122Z,234.41
2023-02-23T13:05:34.033Z,234.90
2023-02-23T13:10:33.976Z,234.41
2023-02-23T13:15:33.908Z,235.74
2023-02-23T13:20:33.824Z,235.74
2023-02-23T13:25:33.777Z,236.58
2023-02-23T13:30:33.835Z,236.92
2023-02-23T13:35:33.649Z,238.28
2023-02-23T13:40:33.579Z,237.60
2023-02-23T13:45:33.515Z,241.57
2023-02-23T13:50:33.436Z,243.17
2023-02-23T13:55:47.103Z,244.60
2023-02-23T14:00:34.318Z,245.51
2023-02-23T14:05:33.245Z,246.24
2023-02-23T14:10:33.169Z,246.78
2023-02-23T14:15:33.116Z,247.71
2023-02-23T14:20:33.036Z,246.97
2023-02-23T14:25:32.995Z,246.60
2023-02-23T14:30:32.969Z,247.52
2023-02-23T14:35:32.878Z,249.76
2023-02-23T14:40:32.815Z,248.26
2023-02-23T14:45:32.786Z,247.89
2023-02-23T14:50:32.646Z,246.60
2023-02-23T14:55:32.633Z,246.78
2023-02-23T15:00:32.716Z,246.05
2023-02-23T15:05:32.480Z,246.78
2023-02-23T15:10:32.370Z,245.14
2023-02-23T15:15:32.341Z,245.32
2023-02-23T15:20:32.401Z,242.46
2023-02-23T15:25:32.178Z,242.10
2023-02-23T15:30:32.128Z,242.63
2023-02-23T15:35:32.070Z,244.60
2023-02-23T15:40:31.982Z,244.06
2023-02-23T15:45:31.980Z,245.87
2023-02-23T15:50:36.977Z,248.82
2023-02-23T15:55:32.816Z,248.45
2023-02-23T16:00:31.725Z,249.01
2023-02-23T16:05:35.397Z,250.32
2023-02-23T16:10:32.642Z,252.61
2023-02-23T16:15:31.505Z,254.55
2023-02-23T16:20:31.478Z,256.71
2023-02-23T16:25:31.402Z,253.96
2023-02-23T16:30:31.334Z,256.91
2023-02-23T16:35:31.271Z,258.31
2023-02-23T16:40:31.215Z,259.93
2023-02-23T16:45:31.131Z,263.02
2023-02-23T16:50:31.066Z,265.55
2023-02-23T16:55:31.005Z,268.34
2023-02-23T17:00:30.929Z,270.31
2023-02-23T17:05:30.899Z,271.19
2023-02-23T17:10:30.857Z,273.65
2023-02-23T17:15:30.752Z,271.64
2023-02-23T17:20:30.664Z,271.19
2023-02-23T17:25:30.634Z,274.56
2023-02-23T17:30:30.598Z,274.33
2023-02-23T17:35:30.482Z,278.47
2023-02-23T17:40:30.424Z,280.12
2023-02-23T17:45:30.369Z,281.55
2023-02-23T17:50:30.269Z,282.02
2023-02-23T17:55:30.231Z,284.93
2023-02-23T18:00:30.151Z,287.65
2023-02-23T18:05:30.123Z,291.44
2023-02-23T18:10:30.001Z,293.50
2023-02-23T18:15:29.996Z,293.50
2023-02-23T18:20:29.856Z,292.72
2023-02-23T18:25:29.808Z,292.72
2023-02-23T18:30:29.755Z,294.80
2023-02-23T18:35:29.693Z,295.33
2023-02-23T18:40:29.714Z,296.12
2023-02-23T18:45:29.557Z,296.65
2023-02-23T18:50:29.525Z,296.91
2023-02-23T18:55:29.430Z,300.41
2023-02-23T19:00:29.343Z,298.52
2023-02-23T19:05:29.444Z,300.14
2023-02-23T19:10:29.205Z,301.23
2023-02-23T19:15:29.635Z,300.95
2023-02-23T19:20:29.077Z,301.77
2023-02-23T19:25:29.247Z,303.43
2023-02-23T19:30:28.954Z,304.83
2023-02-23T19:35:28.959Z,305.39
2023-02-23T19:40:28.851Z,305.11
2023-02-23T19:45:28.820Z,307.65
2023-02-23T19:50:28.692Z,306.80
2023-02-23T19:55:28.678Z,309.08
2023-02-23T20:00:28.590Z,309.66
2023-02-23T20:05:28.617Z,312.87
2023-02-23T20:10:28.460Z,315.85
2023-02-23T20:15:28.370Z,320.12
2023-02-23T20:20:28.326Z,320.43
2023-02-23T20:25:28.253Z,318.89
2023-02-23T20:30:28.260Z,318.58
2023-02-23T20:35:28.146Z,319.19
2023-02-23T20:40:28.080Z,316.15
2023-02-23T20:45:28.055Z,316.76
2023-02-23T20:50:27.948Z,317.36
2023-02-23T20:55:27.985Z,315.55
2023-02-23T21:00:27.880Z,314.95
2023-02-23T21:05:27.733Z,314.65
2023-02-23T21:10:27.653Z,311.40
2023-02-23T21:15:27.643Z,313.17
2023-02-23T21:20:27.580Z,314.36
2023-02-23T21:25:27.477Z,313.17
2023-02-23T21:30:27.363Z,312.58
2023-02-23T21:35:27.354Z,312.28
2023-02-23T21:40:27.329Z,310.82
2023-02-23T21:45:27.198Z,308.51
2023-02-23T21:50:27.160Z,306.23
2023-02-23T21:55:27.078Z,303.15
2023-02-23T22:00:26.989Z,302.88
2023-02-23T22:05:26.905Z,303.99
2023-02-23T22:10:26.840Z,305.11
2023-02-23T22:15:26.777Z,307.08
2023-02-23T22:20:26.727Z,309.66
2023-02-23T22:25:26.652Z,309.95
2023-02-23T22:30:26.579Z,313.76
2023-02-23T22:35:26.550Z,315.25
2023-02-23T22:40:26.489Z,315.55
2023-02-23T22:45:26.384Z,314.06
2023-02-23T22:50:26.307Z,311.99
2023-02-23T22:55:26.259Z,311.40
2023-02-23T23:00:26.198Z,307.08
2023-02-23T23:05:26.141Z,310.24
2023-02-23T23:10:26.049Z,309.66
2023-02-23T23:15:26.018Z,309.66
2023-02-23T23:20:26.113Z,311.99
2023-02-23T23:25:27.673Z,308.51
2023-02-23T23:30:25.875Z,307.08
2023-02-23T23:35:25.755Z,306.51
2023-02-23T23:40:25.660Z,305.11
2023-02-23T23:45:25.611Z,303.71
2023-02-23T23:50:25.536Z,300.95
2023-02-23T23:55:25.476Z,302.88
